LPLA METAR and TAF weather

Enter ICAO airport designator
Station Type Date Time Source
LPLA METAR 2018/12/15 02:00 UTC NOAA

LPLA 150200Z /////KT 9999 FEW018 13/10 Q1019


Station Type Date Time Source
LPLA Decoded METAR 2018/12/15 02:00 UTC NOAA

Lajes Acores , Portugal (LPLA) 38-46N 027-06W 54M
Dec 14, 2018 - 09:00 PM EST / 2018.12.15 0200 UTC
Visibility: greater than 7 mile(s):0
Sky conditions: mostly clear
Temperature: 55 F (13 C)
Dew Point: 50 F (10 C)
Relative Humidity: 81%
Pressure (altimeter): 30.09 in. Hg (1019 hPa)
ob: LPLA 150200Z /////KT 9999 FEW018 13/10 Q1019
cycle: 2

Station Type Date Time Source
LPLA TAF 2018/12/14 21:32 UTC NOAA

TAF
AMD LPLA 142124Z 1421/1518 29015KT 9999 SCT015
TEMPO 1421/1503 29018G28KT 6000 SHRA FEW007 SCT012 BKN020
TEMPO 1512/1518 29018G28KT 6000 SHRA SCT012 BKN020


Example: see airport list